Angers, France

01:47 CET le 21 février 2017 (GMT +0100)
Angers | | Change Station

Alt. 0 ft 47.47 °N, 0.61 °W | Updated 2 minutes ago

Couvert
Couvert
51.4 ° F
Paraît 51.4 ° F
N
1.9
Vent Variable Vent de OSO
Gusts 5.6 mph

Aujourd'hui
Haut(e) -- | Bas -- ° F
--% Risque de précip.
Hier
Haut(e) -- | Bas -- ° F
Precip. -- pouce
Pression 30.27 pouce
Visibilité 1.3 Miles terrestres
Nuages Couvert 200 ft
Point de rosée 51 ° F
Humidité 98%
Précipitations 0.00 pouce
Profondeur de la couche neigeuse Non disponible.
7:57 AM 6:35 PM
Lune descendante, 30% visible
METAR LFJR 210030Z AUTO 24005KT 2100 BR OVC002 11/10 Q1025
Pression 30.27 pouce
Visibilité 1.3 Miles terrestres
Nuages Couvert 200 ft
Point de rosée 51 ° F
Humidité 98%
Précipitations 0.00 pouce
Profondeur de la couche neigeuse Non disponible.
7:57 AM 6:35 PM
Lune descendante, 30% visible
METAR LFJR 210030Z AUTO 24005KT 2100 BR OVC002 11/10 Q1025

Get Your Daily Forecast Email!

Thanks for signing up!

Be on the lookout for a verification email in your inbox.

You'll start receiving the daily forecast at 8 AM.

×

10-Day Weather Forecast

×

Almanac

Astronomie

Feb. 21, 2017 Lever Coucher
Temps réel
Crépuscule civil
Crépuscule nautique
Crépuscule astronomique
Lune
Durée de lumière visible
Longueur du jour
Tomorrow will be .
, % of the Moon is Illuminated

Extrêmes aujourd'hui

Country Highs Country Lows

Community

WunderPhotos

Upload Photos

1,962,540 Photos téléchargées !

WunderBlog® & News

Nearby

Qualité de l'air

  Qualité de l'air Indice de la qualité de l'air Polluant
Not available.

Épaisseur de neige

Station Depth Altitude

Activité sismique

Ville Distance Mag. Time & Date
Minimum magnitude displayed is 2.5.

Températures des eaux côtières

Lieu Température

Stations

Stations météo à proximité

Emplacement de la station Température Refroidissement éolien Point de rosée Humidité Vent Precip. Alt. Mise à jour Type